sensor_id;sensor_type;location;lat;lon;timestamp;pressure;altitude;pressure_sealevel;temperature;humidity
11830;BME280;5972;42.134;24.718;2023-02-04T00:02:06;99597.06;;;6.41;49.75
11830;BME280;5972;42.134;24.718;2023-02-04T00:04:33;99588.22;;;6.40;50.35
11830;BME280;5972;42.134;24.718;2023-02-04T00:07:00;99586.59;;;6.31;50.80
11830;BME280;5972;42.134;24.718;2023-02-04T00:09:27;99582.00;;;6.31;50.08
11830;BME280;5972;42.134;24.718;2023-02-04T00:11:55;99576.00;;;6.25;50.81
11830;BME280;5972;42.134;24.718;2023-02-04T00:14:22;99561.59;;;6.13;50.52
11830;BME280;5972;42.134;24.718;2023-02-04T00:16:48;99552.63;;;5.78;50.79
11830;BME280;5972;42.134;24.718;2023-02-04T00:19:15;99569.84;;;5.77;52.15
11830;BME280;5972;42.134;24.718;2023-02-04T00:21:42;99580.44;;;5.82;52.69
11830;BME280;5972;42.134;24.718;2023-02-04T00:24:10;99569.84;;;5.85;52.73
11830;BME280;5972;42.134;24.718;2023-02-04T00:26:37;99567.38;;;5.89;53.36
11830;BME280;5972;42.134;24.718;2023-02-04T00:29:05;99560.13;;;5.90;52.44
11830;BME280;5972;42.134;24.718;2023-02-04T00:31:32;99560.94;;;5.99;51.85
11830;BME280;5972;42.134;24.718;2023-02-04T00:33:59;99560.78;;;5.95;50.61
11830;BME280;5972;42.134;24.718;2023-02-04T00:36:26;99557.94;;;6.00;50.31
11830;BME280;5972;42.134;24.718;2023-02-04T00:38:52;99556.84;;;6.01;49.70
11830;BME280;5972;42.134;24.718;2023-02-04T00:41:19;99550.34;;;6.02;50.23
11830;BME280;5972;42.134;24.718;2023-02-04T00:43:46;99550.22;;;6.07;49.23
11830;BME280;5972;42.134;24.718;2023-02-04T00:46:20;99534.22;;;6.02;49.38
11830;BME280;5972;42.134;24.718;2023-02-04T00:48:47;99550.69;;;6.09;48.86
11830;BME280;5972;42.134;24.718;2023-02-04T00:51:13;99553.56;;;6.13;48.92
11830;BME280;5972;42.134;24.718;2023-02-04T00:53:40;99549.91;;;6.17;49.05
11830;BME280;5972;42.134;24.718;2023-02-04T00:56:07;99547.84;;;6.14;49.26
11830;BME280;5972;42.134;24.718;2023-02-04T00:58:34;99532.19;;;6.08;49.27
11830;BME280;5972;42.134;24.718;2023-02-04T01:01:01;99542.81;;;6.13;49.53
11830;BME280;5972;42.134;24.718;2023-02-04T01:03:29;99513.38;;;5.99;49.91
11830;BME280;5972;42.134;24.718;2023-02-04T01:05:56;99519.09;;;6.15;49.82
11830;BME280;5972;42.134;24.718;2023-02-04T01:08:22;99525.25;;;6.15;50.35
11830;BME280;5972;42.134;24.718;2023-02-04T01:10:49;99513.72;;;6.15;50.15
11830;BME280;5972;42.134;24.718;2023-02-04T01:13:16;99508.81;;;6.17;50.62
11830;BME280;5972;42.134;24.718;2023-02-04T01:15:43;99500.47;;;6.18;49.86
11830;BME280;5972;42.134;24.718;2023-02-04T01:18:11;99492.53;;;6.31;49.53
11830;BME280;5972;42.134;24.718;2023-02-04T01:20:40;99459.03;;;6.19;49.52
11830;BME280;5972;42.134;24.718;2023-02-04T01:23:07;99470.75;;;6.23;49.53
11830;BME280;5972;42.134;24.718;2023-02-04T01:25:33;99466.78;;;6.21;49.29
11830;BME280;5972;42.134;24.718;2023-02-04T01:28:00;99468.84;;;6.24;49.81
11830;BME280;5972;42.134;24.718;2023-02-04T01:30:27;99450.94;;;5.85;51.26
11830;BME280;5972;42.134;24.718;2023-02-04T01:32:54;99438.63;;;5.84;51.34
11830;BME280;5972;42.134;24.718;2023-02-04T01:35:20;99434.66;;;5.73;51.67
11830;BME280;5972;42.134;24.718;2023-02-04T01:37:49;99427.19;;;5.61;52.66
11830;BME280;5972;42.134;24.718;2023-02-04T01:40:16;99408.22;;;5.40;53.07
11830;BME280;5972;42.134;24.718;2023-02-04T01:42:43;99414.25;;;5.55;53.94
11830;BME280;5972;42.134;24.718;2023-02-04T01:45:10;99406.50;;;5.44;54.15
11830;BME280;5972;42.134;24.718;2023-02-04T01:47:37;99392.78;;;5.55;54.00
11830;BME280;5972;42.134;24.718;2023-02-04T01:50:06;99415.06;;;5.72;53.62
11830;BME280;5972;42.134;24.718;2023-02-04T01:52:35;99419.50;;;5.77;53.25
11830;BME280;5972;42.134;24.718;2023-02-04T01:55:11;99415.69;;;5.86;53.92
11830;BME280;5972;42.134;24.718;2023-02-04T01:57:39;99412.72;;;5.97;55.01
11830;BME280;5972;42.134;24.718;2023-02-04T02:00:10;99405.78;;;6.04;55.15
11830;BME280;5972;42.134;24.718;2023-02-04T02:02:42;99395.69;;;5.93;55.70
11830;BME280;5972;42.134;24.718;2023-02-04T02:05:11;99400.09;;;5.97;57.08
11830;BME280;5972;42.134;24.718;2023-02-04T02:07:39;99386.38;;;5.90;57.11
11830;BME280;5972;42.134;24.718;2023-02-04T02:10:10;99393.06;;;5.53;58.89
11830;BME280;5972;42.134;24.718;2023-02-04T02:12:37;99409.53;;;5.77;59.24
11830;BME280;5972;42.134;24.718;2023-02-04T02:15:05;99390.09;;;5.63;59.16
11830;BME280;5972;42.134;24.718;2023-02-04T02:17:32;99376.78;;;5.41;60.01
11830;BME280;5972;42.134;24.718;2023-02-04T02:19:59;99365.41;;;5.27;61.42
11830;BME280;5972;42.134;24.718;2023-02-04T02:22:28;99382.97;;;5.50;61.60
11830;BME280;5972;42.134;24.718;2023-02-04T02:24:57;99374.16;;;5.67;61.05
11830;BME280;5972;42.134;24.718;2023-02-04T02:27:24;99380.78;;;5.69;60.56
11830;BME280;5972;42.134;24.718;2023-02-04T02:29:51;99371.00;;;5.73;61.00
11830;BME280;5972;42.134;24.718;2023-02-04T02:32:19;99343.53;;;5.51;61.04
11830;BME280;5972;42.134;24.718;2023-02-04T02:34:45;99370.88;;;5.87;59.92
11830;BME280;5972;42.134;24.718;2023-02-04T02:37:12;99359.81;;;5.89;59.54
11830;BME280;5972;42.134;24.718;2023-02-04T02:39:41;99334.03;;;5.70;59.95
11830;BME280;5972;42.134;24.718;2023-02-04T02:42:13;99344.47;;;5.72;61.01
11830;BME280;5972;42.134;24.718;2023-02-04T02:44:41;99353.31;;;5.72;61.80
11830;BME280;5972;42.134;24.718;2023-02-04T02:47:11;99320.16;;;5.51;62.28
11830;BME280;5972;42.134;24.718;2023-02-04T02:49:39;99340.53;;;5.69;60.23
11830;BME280;5972;42.134;24.718;2023-02-04T02:52:09;99335.31;;;5.73;60.75
11830;BME280;5972;42.134;24.718;2023-02-04T02:54:36;99341.47;;;5.73;58.64
11830;BME280;5972;42.134;24.718;2023-02-04T02:57:11;99308.19;;;5.57;59.09
11830;BME280;5972;42.134;24.718;2023-02-04T02:59:40;99304.34;;;5.58;59.81
11830;BME280;5972;42.134;24.718;2023-02-04T03:02:08;99319.06;;;5.61;59.88
11830;BME280;5972;42.134;24.718;2023-02-04T03:04:40;99308.94;;;5.58;60.84
11830;BME280;5972;42.134;24.718;2023-02-04T03:07:08;99300.13;;;5.57;59.51
11830;BME280;5972;42.134;24.718;2023-02-04T03:09:36;99301.84;;;5.62;60.23
11830;BME280;5972;42.134;24.718;2023-02-04T03:12:04;99304.69;;;5.57;59.56
11830;BME280;5972;42.134;24.718;2023-02-04T03:14:31;99300.13;;;5.57;60.25
11830;BME280;5972;42.134;24.718;2023-02-04T03:17:01;99297.91;;;5.51;61.67
11830;BME280;5972;42.134;24.718;2023-02-04T03:19:31;99273.75;;;5.51;60.78
11830;BME280;5972;42.134;24.718;2023-02-04T03:22:01;99304.38;;;5.67;60.88
11830;BME280;5972;42.134;24.718;2023-02-04T03:24:29;99275.94;;;5.49;61.24
11830;BME280;5972;42.134;24.718;2023-02-04T03:26:56;99306.09;;;5.71;61.42
11830;BME280;5972;42.134;24.718;2023-02-04T03:29:22;99304.06;;;5.77;61.75
11830;BME280;5972;42.134;24.718;2023-02-04T03:31:49;99296.66;;;5.74;61.66
11830;BME280;5972;42.134;24.718;2023-02-04T03:34:17;99299.00;;;5.75;62.62
11830;BME280;5972;42.134;24.718;2023-02-04T03:36:44;99289.69;;;5.47;65.04
11830;BME280;5972;42.134;24.718;2023-02-04T03:39:11;99296.78;;;5.60;64.96
11830;BME280;5972;42.134;24.718;2023-02-04T03:41:38;99291.41;;;5.69;64.85
11830;BME280;5972;42.134;24.718;2023-02-04T03:44:04;99256.22;;;5.53;65.25
11830;BME280;5972;42.134;24.718;2023-02-04T03:46:31;99276.88;;;5.70;65.02
11830;BME280;5972;42.134;24.718;2023-02-04T03:48:58;99278.16;;;5.64;64.76
11830;BME280;5972;42.134;24.718;2023-02-04T03:51:26;99271.84;;;5.25;65.83
11830;BME280;5972;42.134;24.718;2023-02-04T03:53:53;99269.97;;;5.34;66.73
11830;BME280;5972;42.134;24.718;2023-02-04T03:56:20;99263.31;;;5.32;67.76
11830;BME280;5972;42.134;24.718;2023-02-04T03:58:47;99252.13;;;5.21;69.74
11830;BME280;5972;42.134;24.718;2023-02-04T04:01:14;99253.22;;;5.20;69.28
11830;BME280;5972;42.134;24.718;2023-02-04T04:03:41;99251.47;;;5.24;69.68
11830;BME280;5972;42.134;24.718;2023-02-04T04:06:07;99241.25;;;5.35;68.37
11830;BME280;5972;42.134;24.718;2023-02-04T04:08:37;99218.97;;;5.09;68.05
11830;BME280;5972;42.134;24.718;2023-02-04T04:11:04;99220.25;;;5.28;67.41
11830;BME280;5972;42.134;24.718;2023-02-04T04:13:31;99231.88;;;4.98;67.66
11830;BME280;5972;42.134;24.718;2023-02-04T04:15:58;99226.84;;;4.88;67.20
11830;BME280;5972;42.134;24.718;2023-02-04T04:18:24;99232.69;;;5.07;69.17
11830;BME280;5972;42.134;24.718;2023-02-04T04:20:51;99229.06;;;5.03;68.48
11830;BME280;5972;42.134;24.718;2023-02-04T04:23:18;99214.56;;;5.04;66.29
11830;BME280;5972;42.134;24.718;2023-02-04T04:25:46;99223.81;;;4.81;66.62
11830;BME280;5972;42.134;24.718;2023-02-04T04:28:13;99223.50;;;4.91;66.76
11830;BME280;5972;42.134;24.718;2023-02-04T04:30:40;99226.84;;;4.96;66.91
11830;BME280;5972;42.134;24.718;2023-02-04T04:33:07;99227.81;;;5.00;66.20
11830;BME280;5972;42.134;24.718;2023-02-04T04:35:33;99234.28;;;5.17;66.50
11830;BME280;5972;42.134;24.718;2023-02-04T04:38:00;99236.50;;;5.23;66.67
11830;BME280;5972;42.134;24.718;2023-02-04T04:40:29;99234.75;;;5.19;66.57
11830;BME280;5972;42.134;24.718;2023-02-04T04:42:57;99223.25;;;5.27;66.19
11830;BME280;5972;42.134;24.718;2023-02-04T04:45:24;99205.41;;;5.31;66.42
11830;BME280;5972;42.134;24.718;2023-02-04T04:47:51;99197.84;;;5.33;66.20
11830;BME280;5972;42.134;24.718;2023-02-04T04:50:18;99204.13;;;5.37;65.93
11830;BME280;5972;42.134;24.718;2023-02-04T04:52:45;99200.50;;;5.41;65.60
11830;BME280;5972;42.134;24.718;2023-02-04T04:55:11;99204.44;;;5.35;65.78
11830;BME280;5972;42.134;24.718;2023-02-04T04:57:38;99173.25;;;5.22;65.57
11830;BME280;5972;42.134;24.718;2023-02-04T05:00:09;99190.91;;;5.23;67.23
11830;BME280;5972;42.134;24.718;2023-02-04T05:02:37;99197.19;;;5.19;69.52
11830;BME280;5972;42.134;24.718;2023-02-04T05:05:04;99197.69;;;5.12;70.81
11830;BME280;5972;42.134;24.718;2023-02-04T05:07:31;99208.25;;;5.17;72.57
11830;BME280;5972;42.134;24.718;2023-02-04T05:09:58;99198.63;;;5.25;72.59
11830;BME280;5972;42.134;24.718;2023-02-04T05:12:24;99203.69;;;5.18;74.26
11830;BME280;5972;42.134;24.718;2023-02-04T05:14:51;99207.59;;;5.03;76.92
11830;BME280;5972;42.134;24.718;2023-02-04T05:17:19;99184.28;;;4.95;77.38
11830;BME280;5972;42.134;24.718;2023-02-04T05:19:46;99207.13;;;5.10;76.43
11830;BME280;5972;42.134;24.718;2023-02-04T05:22:13;99197.53;;;5.17;76.61
11830;BME280;5972;42.134;24.718;2023-02-04T05:24:40;99185.06;;;5.21;74.96
11830;BME280;5972;42.134;24.718;2023-02-04T05:27:06;99191.81;;;5.36;74.36
11830;BME280;5972;42.134;24.718;2023-02-04T05:29:34;99187.25;;;5.36;73.94
11830;BME280;5972;42.134;24.718;2023-02-04T05:32:01;99178.41;;;5.36;75.11
11830;BME280;5972;42.134;24.718;2023-02-04T05:34:29;99183.63;;;5.41;73.64
11830;BME280;5972;42.134;24.718;2023-02-04T05:36:56;99188.38;;;5.44;73.20
11830;BME280;5972;42.134;24.718;2023-02-04T05:39:23;99155.41;;;5.26;71.44
11830;BME280;5972;42.134;24.718;2023-02-04T05:41:50;99186.63;;;5.39;70.57
11830;BME280;5972;42.134;24.718;2023-02-04T05:44:17;99147.66;;;5.25;68.76
11830;BME280;5972;42.134;24.718;2023-02-04T05:46:43;99181.41;;;5.43;67.86
11830;BME280;5972;42.134;24.718;2023-02-04T05:49:13;99201.91;;;5.48;69.33
11830;BME280;5972;42.134;24.718;2023-02-04T05:51:41;99191.19;;;5.56;68.11
11830;BME280;5972;42.134;24.718;2023-02-04T05:54:08;99178.56;;;5.57;66.16
11830;BME280;5972;42.134;24.718;2023-02-04T05:56:34;99179.47;;;5.69;65.59
11830;BME280;5972;42.134;24.718;2023-02-04T05:59:01;99190.84;;;5.58;67.52
11830;BME280;5972;42.134;24.718;2023-02-04T06:01:28;99200.81;;;5.66;66.95
11830;BME280;5972;42.134;24.718;2023-02-04T06:03:55;99198.44;;;5.73;67.28
11830;BME280;5972;42.134;24.718;2023-02-04T06:06:24;99195.75;;;5.73;66.49
11830;BME280;5972;42.134;24.718;2023-02-04T06:08:52;99197.78;;;5.84;65.90
11830;BME280;5972;42.134;24.718;2023-02-04T06:11:19;99197.94;;;5.88;65.84
11830;BME280;5972;42.134;24.718;2023-02-04T06:13:45;99202.22;;;5.89;67.39
11830;BME280;5972;42.134;24.718;2023-02-04T06:16:12;99192.22;;;5.98;67.09
11830;BME280;5972;42.134;24.718;2023-02-04T06:18:41;99188.56;;;6.03;65.28
11830;BME280;5972;42.134;24.718;2023-02-04T06:21:08;99191.31;;;5.77;65.15
11830;BME280;5972;42.134;24.718;2023-02-04T06:23:35;99197.63;;;5.90;65.30
11830;BME280;5972;42.134;24.718;2023-02-04T06:26:04;99198.84;;;6.01;65.30
11830;BME280;5972;42.134;24.718;2023-02-04T06:28:30;99172.19;;;5.87;65.20
11830;BME280;5972;42.134;24.718;2023-02-04T06:30:57;99200.41;;;6.10;65.44
11830;BME280;5972;42.134;24.718;2023-02-04T06:33:24;99210.75;;;6.29;65.50
11830;BME280;5972;42.134;24.718;2023-02-04T06:35:51;99215.78;;;6.31;64.69
11830;BME280;5972;42.134;24.718;2023-02-04T06:38:17;99208.63;;;6.43;64.37
11830;BME280;5972;42.134;24.718;2023-02-04T06:40:46;99202.94;;;6.45;63.97
11830;BME280;5972;42.134;24.718;2023-02-04T06:43:19;99212.84;;;6.53;62.02
11830;BME280;5972;42.134;24.718;2023-02-04T06:45:46;99204.94;;;6.56;62.34
11830;BME280;5972;42.134;24.718;2023-02-04T06:48:12;99222.78;;;6.61;61.85
11830;BME280;5972;42.134;24.718;2023-02-04T06:50:39;99203.34;;;6.55;61.17
11830;BME280;5972;42.134;24.718;2023-02-04T06:53:11;99221.94;;;6.69;60.36
11830;BME280;5972;42.134;24.718;2023-02-04T06:55:42;99216.75;;;6.64;59.75
11830;BME280;5972;42.134;24.718;2023-02-04T06:58:09;99189.13;;;6.55;60.10
11830;BME280;5972;42.134;24.718;2023-02-04T07:00:37;99234.91;;;6.96;58.13
11830;BME280;5972;42.134;24.718;2023-02-04T07:03:04;99227.78;;;7.21;57.84
11830;BME280;5972;42.134;24.718;2023-02-04T07:05:33;99187.34;;;7.09;59.99
11830;BME280;5972;42.134;24.718;2023-02-04T07:08:00;99193.81;;;6.87;65.65
11830;BME280;5972;42.134;24.718;2023-02-04T07:10:27;99194.97;;;7.07;65.58
11830;BME280;5972;42.134;24.718;2023-02-04T07:12:54;99243.66;;;7.35;63.12
11830;BME280;5972;42.134;24.718;2023-02-04T07:15:20;99250.75;;;7.19;63.00
11830;BME280;5972;42.134;24.718;2023-02-04T07:17:49;99246.00;;;7.36;60.92
11830;BME280;5972;42.134;24.718;2023-02-04T07:20:18;99247.16;;;7.35;60.91
11830;BME280;5972;42.134;24.718;2023-02-04T07:22:45;99226.00;;;7.46;60.53
11830;BME280;5972;42.134;24.718;2023-02-04T07:25:12;99234.25;;;7.62;59.82
11830;BME280;5972;42.134;24.718;2023-02-04T07:27:40;99235.00;;;7.83;59.86
11830;BME280;5972;42.134;24.718;2023-02-04T07:30:08;99237.41;;;7.97;59.04
11830;BME280;5972;42.134;24.718;2023-02-04T07:32:37;99186.19;;;7.84;58.55
11830;BME280;5972;42.134;24.718;2023-02-04T07:35:06;99246.00;;;8.23;58.90
11830;BME280;5972;42.134;24.718;2023-02-04T07:37:33;99221.25;;;8.21;59.64
11830;BME280;5972;42.134;24.718;2023-02-04T07:40:00;99223.63;;;8.22;60.79
11830;BME280;5972;42.134;24.718;2023-02-04T07:42:26;99225.66;;;8.25;62.18
11830;BME280;5972;42.134;24.718;2023-02-04T07:44:56;99241.88;;;8.38;62.80
11830;BME280;5972;42.134;24.718;2023-02-04T07:47:23;99247.50;;;8.57;62.50
11830;BME280;5972;42.134;24.718;2023-02-04T07:49:50;99197.34;;;8.92;60.54
11830;BME280;5972;42.134;24.718;2023-02-04T07:52:29;99079.75;;;9.78;54.03
11830;BME280;5972;42.134;24.718;2023-02-04T07:55:03;99078.09;;;11.55;48.71
11830;BME280;5972;42.134;24.718;2023-02-04T07:57:48;99152.56;;;14.20;43.20
11830;BME280;5972;42.134;24.718;2023-02-04T08:00:19;99061.63;;;14.86;39.66
11830;BME280;5972;42.134;24.718;2023-02-04T08:02:55;99175.72;;;16.66;37.76
11830;BME280;5972;42.134;24.718;2023-02-04T08:05:32;99046.53;;;16.62;35.70
11830;BME280;5972;42.134;24.718;2023-02-04T08:08:03;99066.97;;;17.27;34.65
11830;BME280;5972;42.134;24.718;2023-02-04T08:10:30;99139.50;;;18.15;33.88
11830;BME280;5972;42.134;24.718;2023-02-04T08:12:57;99132.06;;;17.60;34.16
11830;BME280;5972;42.134;24.718;2023-02-04T08:15:26;99030.22;;;16.34;35.03
11830;BME280;5972;42.134;24.718;2023-02-04T08:17:53;99113.88;;;17.22;35.16
11830;BME280;5972;42.134;24.718;2023-02-04T08:20:24;99028.41;;;17.07;34.65
11830;BME280;5972;42.134;24.718;2023-02-04T08:22:52;99114.38;;;18.27;33.68
11830;BME280;5972;42.134;24.718;2023-02-04T08:25:23;99164.38;;;19.17;32.77
11830;BME280;5972;42.134;24.718;2023-02-04T08:28:05;99147.94;;;19.13;32.50
11830;BME280;5972;42.134;24.718;2023-02-04T08:30:45;99005.53;;;17.94;32.61
11830;BME280;5972;42.134;24.718;2023-02-04T08:33:27;98979.28;;;18.00;32.16
11830;BME280;5972;42.134;24.718;2023-02-04T08:36:13;99157.59;;;19.59;31.37
11830;BME280;5972;42.134;24.718;2023-02-04T08:39:08;99120.88;;;20.26;30.20
11830;BME280;5972;42.134;24.718;2023-02-04T08:42:03;99050.41;;;19.69;29.08
11830;BME280;5972;42.134;24.718;2023-02-04T08:44:44;99012.81;;;18.45;30.19
11830;BME280;5972;42.134;24.718;2023-02-04T08:47:14;99091.88;;;19.75;29.66
11830;BME280;5972;42.134;24.718;2023-02-04T08:50:37;99110.84;;;18.67;29.70
11830;BME280;5972;42.134;24.718;2023-02-04T08:53:02;99008.88;;;17.71;29.70
11830;BME280;5972;42.134;24.718;2023-02-04T08:56:10;99136.97;;;18.38;30.24
11830;BME280;5972;42.134;24.718;2023-02-04T08:58:51;99099.06;;;18.33;30.04
11830;BME280;5972;42.134;24.718;2023-02-04T09:01:38;99132.97;;;18.87;29.65
11830;BME280;5972;42.134;24.718;2023-02-04T09:04:29;98991.63;;;17.74;29.60
11830;BME280;5972;42.134;24.718;2023-02-04T09:07:05;99057.72;;;18.58;29.13
11830;BME280;5972;42.134;24.718;2023-02-04T09:09:41;99117.53;;;19.00;29.24
11830;BME280;5972;42.134;24.718;2023-02-04T09:18:50;98996.78;;;19.34;27.78
11830;BME280;5972;42.134;24.718;2023-02-04T09:21:21;99071.16;;;18.83;28.91
11830;BME280;5972;42.134;24.718;2023-02-04T09:27:34;99064.41;;;15.04;32.99
11830;BME280;5972;42.134;24.718;2023-02-04T09:30:44;99136.34;;;14.34;34.83
11830;BME280;5972;42.134;24.718;2023-02-04T09:33:18;99060.78;;;12.91;36.42
11830;BME280;5972;42.134;24.718;2023-02-04T09:35:56;99032.81;;;12.58;37.71
11830;BME280;5972;42.134;24.718;2023-02-04T09:38:35;98988.81;;;12.12;37.87
11830;BME280;5972;42.134;24.718;2023-02-04T09:41:31;99032.38;;;12.85;37.33
11830;BME280;5972;42.134;24.718;2023-02-04T09:44:31;98974.75;;;12.66;37.02
11830;BME280;5972;42.134;24.718;2023-02-04T09:47:20;99010.34;;;12.57;37.80
11830;BME280;5972;42.134;24.718;2023-02-04T09:50:17;99038.59;;;12.53;38.21
11830;BME280;5972;42.134;24.718;2023-02-04T09:53:04;99103.63;;;12.75;38.80
11830;BME280;5972;42.134;24.718;2023-02-04T09:55:49;98933.72;;;11.78;38.70
11830;BME280;5972;42.134;24.718;2023-02-04T09:58:32;99079.50;;;13.00;38.33
11830;BME280;5972;42.134;24.718;2023-02-04T10:01:19;98978.22;;;12.63;38.27
11830;BME280;5972;42.134;24.718;2023-02-04T10:03:54;98999.44;;;13.20;37.56
11830;BME280;5972;42.134;24.718;2023-02-04T10:06:44;98999.88;;;13.73;36.69
11830;BME280;5972;42.134;24.718;2023-02-04T10:09:30;98911.72;;;13.74;35.67
11830;BME280;5972;42.134;24.718;2023-02-04T10:12:00;99003.75;;;13.72;36.29
11830;BME280;5972;42.134;24.718;2023-02-04T10:15:14;98933.78;;;12.78;37.33
11830;BME280;5972;42.134;24.718;2023-02-04T10:17:45;99041.34;;;12.89;38.46
11830;BME280;5972;42.134;24.718;2023-02-04T10:20:28;98883.78;;;11.79;39.10
11830;BME280;5972;42.134;24.718;2023-02-04T10:22:58;98982.19;;;12.39;39.36
11830;BME280;5972;42.134;24.718;2023-02-04T10:25:44;99023.56;;;12.62;39.44
11830;BME280;5972;42.134;24.718;2023-02-04T10:28:37;98879.75;;;11.69;39.72
11830;BME280;5972;42.134;24.718;2023-02-04T10:31:33;99030.25;;;13.02;39.09
11830;BME280;5972;42.134;24.718;2023-02-04T10:34:19;98980.38;;;12.50;39.55
11830;BME280;5972;42.134;24.718;2023-02-04T10:37:19;98928.09;;;12.20;39.56
11830;BME280;5972;42.134;24.718;2023-02-04T10:40:31;99030.34;;;12.75;40.01
11830;BME280;5972;42.134;24.718;2023-02-04T10:46:37;99026.97;;;12.26;41.05
11830;BME280;5972;42.134;24.718;2023-02-04T10:49:26;98931.22;;;11.92;40.78
11830;BME280;5972;42.134;24.718;2023-02-04T10:52:17;99022.81;;;12.05;41.41
11830;BME280;5972;42.134;24.718;2023-02-04T10:55:03;98860.41;;;10.92;41.77
11830;BME280;5972;42.134;24.718;2023-02-04T10:58:11;98900.09;;;11.07;42.43
11830;BME280;5972;42.134;24.718;2023-02-04T11:01:11;98998.41;;;11.56;43.67
11830;BME280;5972;42.134;24.718;2023-02-04T11:03:44;98913.84;;;11.21;43.42
11830;BME280;5972;42.134;24.718;2023-02-04T11:07:21;98823.03;;;10.55;43.29
11830;BME280;5972;42.134;24.718;2023-02-04T11:09:55;98915.09;;;11.27;43.43
11830;BME280;5972;42.134;24.718;2023-02-04T11:12:39;98830.16;;;10.86;43.20
11830;BME280;5972;42.134;24.718;2023-02-04T11:15:38;98997.34;;;11.87;43.57
11830;BME280;5972;42.134;24.718;2023-02-04T11:18:42;98860.72;;;11.13;43.89
11830;BME280;5972;42.134;24.718;2023-02-04T11:21:48;98813.50;;;10.61;44.04
11830;BME280;5972;42.134;24.718;2023-02-04T11:24:45;98982.94;;;12.09;43.82
11830;BME280;5972;42.134;24.718;2023-02-04T11:27:37;98925.03;;;11.68;44.19
11830;BME280;5972;42.134;24.718;2023-02-04T11:30:30;98931.75;;;11.75;44.11
11830;BME280;5972;42.134;24.718;2023-02-04T11:33:37;98970.09;;;12.03;43.75
11830;BME280;5972;42.134;24.718;2023-02-04T11:36:20;98822.75;;;11.09;43.52
11830;BME280;5972;42.134;24.718;2023-02-04T11:38:52;98820.16;;;10.90;43.74
11830;BME280;5972;42.134;24.718;2023-02-04T11:41:24;98834.06;;;11.15;43.70
11830;BME280;5972;42.134;24.718;2023-02-04T11:44:06;98896.06;;;11.73;43.29
11830;BME280;5972;42.134;24.718;2023-02-04T11:46:40;98880.16;;;11.71;43.53
11830;BME280;5972;42.134;24.718;2023-02-04T11:49:16;98974.78;;;12.36;43.45
11830;BME280;5972;42.134;24.718;2023-02-04T11:52:01;98888.44;;;11.55;44.48
11830;BME280;5972;42.134;24.718;2023-02-04T11:54:30;98859.47;;;11.07;45.56
11830;BME280;5972;42.134;24.718;2023-02-04T11:57:01;98949.31;;;11.61;46.04
11830;BME280;5972;42.134;24.718;2023-02-04T11:59:28;98942.91;;;11.47;46.92
11830;BME280;5972;42.134;24.718;2023-02-04T12:02:05;98933.97;;;11.20;47.66
11830;BME280;5972;42.134;24.718;2023-02-04T12:04:48;98784.38;;;10.32;47.39
11830;BME280;5972;42.134;24.718;2023-02-04T12:07:22;98940.13;;;11.43;48.36
11830;BME280;5972;42.134;24.718;2023-02-04T12:09:54;98958.22;;;11.62;48.82
11830;BME280;5972;42.134;24.718;2023-02-04T12:12:29;98946.88;;;11.76;49.13
11830;BME280;5972;42.134;24.718;2023-02-04T12:15:02;98950.56;;;11.90;49.58
11830;BME280;5972;42.134;24.718;2023-02-04T12:17:29;98931.72;;;12.01;48.99
11830;BME280;5972;42.134;24.718;2023-02-04T12:19:56;98965.97;;;12.13;48.72
11830;BME280;5972;42.134;24.718;2023-02-04T12:22:22;98938.19;;;11.93;49.53
11830;BME280;5972;42.134;24.718;2023-02-04T12:24:49;98922.31;;;11.91;50.09
11830;BME280;5972;42.134;24.718;2023-02-04T12:27:18;98951.75;;;12.23;49.95
11830;BME280;5972;42.134;24.718;2023-02-04T12:29:46;98960.53;;;12.13;50.66
11830;BME280;5972;42.134;24.718;2023-02-04T12:32:13;98947.69;;;12.09;51.66
11830;BME280;5972;42.134;24.718;2023-02-04T12:34:40;98949.59;;;12.05;52.03
11830;BME280;5972;42.134;24.718;2023-02-04T12:37:07;98961.06;;;11.95;51.92
11830;BME280;5972;42.134;24.718;2023-02-04T12:39:33;98967.13;;;11.85;52.33
11830;BME280;5972;42.134;24.718;2023-02-04T12:42:00;98961.28;;;11.60;53.09
11830;BME280;5972;42.134;24.718;2023-02-04T12:44:30;98954.53;;;11.47;53.06
11830;BME280;5972;42.134;24.718;2023-02-04T12:47:00;98967.38;;;11.54;53.19
11830;BME280;5972;42.134;24.718;2023-02-04T12:49:26;98952.84;;;11.39;53.07
11830;BME280;5972;42.134;24.718;2023-02-04T12:51:54;98934.72;;;11.20;52.27
11830;BME280;5972;42.134;24.718;2023-02-04T12:54:23;98971.84;;;11.43;52.77
11830;BME280;5972;42.134;24.718;2023-02-04T12:56:50;98973.38;;;11.40;52.59
11830;BME280;5972;42.134;24.718;2023-02-04T12:59:17;98973.09;;;11.49;52.25
11830;BME280;5972;42.134;24.718;2023-02-04T13:01:46;98975.25;;;11.36;51.50
11830;BME280;5972;42.134;24.718;2023-02-04T13:04:13;98969.56;;;11.22;51.68
11830;BME280;5972;42.134;24.718;2023-02-04T13:06:39;98970.81;;;11.05;51.43
11830;BME280;5972;42.134;24.718;2023-02-04T13:09:06;98970.50;;;10.88;52.23
11830;BME280;5972;42.134;24.718;2023-02-04T13:11:33;98981.50;;;10.75;52.87
11830;BME280;5972;42.134;24.718;2023-02-04T13:14:00;98985.41;;;10.78;54.28
11830;BME280;5972;42.134;24.718;2023-02-04T13:16:27;98965.81;;;10.65;55.07
11830;BME280;5972;42.134;24.718;2023-02-04T13:18:55;98968.47;;;10.62;55.72
11830;BME280;5972;42.134;24.718;2023-02-04T13:21:23;98974.72;;;10.66;55.73
11830;BME280;5972;42.134;24.718;2023-02-04T13:23:50;98984.06;;;10.68;56.15
11830;BME280;5972;42.134;24.718;2023-02-04T13:26:16;98994.78;;;10.65;55.52
11830;BME280;5972;42.134;24.718;2023-02-04T13:28:43;98985.19;;;10.67;55.06
11830;BME280;5972;42.134;24.718;2023-02-04T13:31:10;99000.66;;;10.67;54.84
11830;BME280;5972;42.134;24.718;2023-02-04T13:33:38;98986.78;;;10.68;54.97
11830;BME280;5972;42.134;24.718;2023-02-04T13:36:07;98994.09;;;10.68;54.90
11830;BME280;5972;42.134;24.718;2023-02-04T13:38:34;98959.00;;;10.52;54.79
11830;BME280;5972;42.134;24.718;2023-02-04T13:41:01;98971.97;;;10.62;54.20
11830;BME280;5972;42.134;24.718;2023-02-04T13:43:28;99002.50;;;10.63;53.42
11830;BME280;5972;42.134;24.718;2023-02-04T13:45:57;99004.91;;;10.68;53.09
11830;BME280;5972;42.134;24.718;2023-02-04T13:48:29;98983.19;;;10.45;53.59